createdAt,value
2022-11-14T00:00:53.647Z,101779.31
2022-11-14T00:03:19.907Z,101783.66
2022-11-14T00:05:46.814Z,101768.34
2022-11-14T00:08:23.997Z,101774.22
2022-11-14T00:10:51.226Z,101775.19
2022-11-14T00:13:19.193Z,101751.97
2022-11-14T00:15:49.136Z,101765.59
2022-11-14T00:18:15.778Z,101760.31
2022-11-14T00:20:42.194Z,101760.03
2022-11-14T00:23:08.433Z,101767.53
2022-11-14T00:25:34.764Z,101743.97
2022-11-14T00:28:01.092Z,101749.66
2022-11-14T00:30:27.920Z,101738.91
2022-11-14T00:32:54.242Z,101743.16
2022-11-14T00:35:20.609Z,101742.38
2022-11-14T00:37:46.896Z,101730.53
2022-11-14T00:40:13.220Z,101731.91
2022-11-14T00:42:39.535Z,101716.91
2022-11-14T00:45:06.357Z,101727.41
2022-11-14T00:47:32.675Z,101715.13
2022-11-14T00:49:58.996Z,101728.34
2022-11-14T00:52:25.334Z,101721.53
2022-11-14T00:54:51.674Z,101721.66
2022-11-14T00:57:17.974Z,101720.72
2022-11-14T00:59:44.320Z,101697.66
2022-11-14T01:02:10.633Z,101695.16
2022-11-14T01:04:36.948Z,101694.34
2022-11-14T01:07:03.489Z,101700.09
2022-11-14T01:09:29.880Z,101693.81
2022-11-14T01:11:56.153Z,101701.31
2022-11-14T01:14:22.504Z,101682.34
2022-11-14T01:16:48.818Z,101682.03
2022-11-14T01:19:15.154Z,101682.56
2022-11-14T01:21:41.503Z,101683.66
2022-11-14T01:24:07.932Z,101688.25
2022-11-14T01:26:34.141Z,101697.56
2022-11-14T01:29:00.455Z,101690.56
2022-11-14T01:31:26.783Z,101681.16
2022-11-14T01:33:54.326Z,101676.25
2022-11-14T01:36:21.135Z,101677.19
2022-11-14T01:38:52.304Z,101658.22
2022-11-14T01:41:18.674Z,101654.16
2022-11-14T01:43:45.025Z,101653.84
2022-11-14T01:46:36.098Z,101650.81
2022-11-14T01:49:14.970Z,101632.38
2022-11-14T01:51:50.198Z,101642.22
2022-11-14T01:54:26.736Z,101641.63
2022-11-14T01:56:57.977Z,101620.22
2022-11-14T01:59:36.260Z,101622.13
2022-11-14T02:02:12.157Z,101620.78
2022-11-14T02:04:43.157Z,101608.50
2022-11-14T02:07:11.638Z,101617.91
2022-11-14T02:09:41.541Z,101606.72
2022-11-14T02:12:12.328Z,101599.97
2022-11-14T02:14:39.607Z,101613.81
2022-11-14T02:20:11.122Z,101615.94
2022-11-14T02:22:38.833Z,101617.13
2022-11-14T02:25:06.577Z,101611.66
2022-11-14T02:27:34.746Z,101598.69
2022-11-14T02:30:06.693Z,101593.91
2022-11-14T02:32:56.962Z,101588.66
2022-11-14T02:35:19.452Z,101587.41
2022-11-14T02:37:45.727Z,101592.81
2022-11-14T02:40:12.389Z,101596.72
2022-11-14T02:42:38.721Z,101585.50
2022-11-14T02:45:05.485Z,101596.50
2022-11-14T02:47:31.836Z,101577.28
2022-11-14T02:49:58.209Z,101578.00
2022-11-14T02:52:24.560Z,101562.41
2022-11-14T02:54:54.497Z,101544.84
2022-11-14T02:57:21.138Z,101547.69
2022-11-14T02:59:47.444Z,101574.38
2022-11-14T03:02:13.773Z,101556.72
2022-11-14T03:04:40.093Z,101569.47
2022-11-14T03:07:06.483Z,101559.28
2022-11-14T03:09:32.750Z,101578.47
2022-11-14T03:11:59.073Z,101553.28
2022-11-14T03:14:25.396Z,101562.41
2022-11-14T03:16:51.776Z,101554.75
2022-11-14T03:19:18.161Z,101572.41
2022-11-14T03:21:44.726Z,101580.84
2022-11-14T03:24:11.051Z,101560.25
2022-11-14T03:26:37.364Z,101562.13
2022-11-14T03:29:03.811Z,101553.00
2022-11-14T03:31:30.039Z,101567.75
2022-11-14T03:33:56.379Z,101558.50
2022-11-14T03:36:22.805Z,101540.00
2022-11-14T03:38:49.312Z,101545.97
2022-11-14T03:41:15.580Z,101551.59
2022-11-14T03:43:41.909Z,101534.03
2022-11-14T03:46:08.274Z,101543.38
2022-11-14T03:48:34.582Z,101516.56
2022-11-14T03:51:00.901Z,101532.03
2022-11-14T03:53:27.215Z,101523.72
2022-11-14T03:55:53.803Z,101512.13
2022-11-14T03:58:20.124Z,101526.41
2022-11-14T04:00:46.541Z,101514.59
2022-11-14T04:03:12.892Z,101519.63
2022-11-14T04:05:39.252Z,101509.91
2022-11-14T04:08:06.563Z,101510.03
2022-11-14T04:10:32.921Z,101510.97
2022-11-14T04:12:59.217Z,101503.00
2022-11-14T04:15:25.519Z,101503.38
2022-11-14T04:17:51.814Z,101512.84
2022-11-14T04:20:18.155Z,101513.78
2022-11-14T04:22:46.340Z,101508.63
2022-11-14T04:25:12.656Z,101510.03
2022-11-14T04:27:39.076Z,101503.47
2022-11-14T04:30:06.396Z,101508.97
2022-11-14T04:32:32.843Z,101500.31
2022-11-14T04:34:59.335Z,101483.78
2022-11-14T04:37:25.575Z,101486.59
2022-11-14T04:39:51.880Z,101493.75
2022-11-14T04:42:18.222Z,101478.91
2022-11-14T04:44:44.627Z,101502.19
2022-11-14T04:47:11.018Z,101491.41
2022-11-14T04:49:37.358Z,101483.22
2022-11-14T04:52:03.783Z,101486.03
2022-11-14T04:54:30.076Z,101482.78
2022-11-14T04:56:56.419Z,101494.97
2022-11-14T04:59:22.741Z,101493.06
2022-11-14T05:01:49.125Z,101497.75
2022-11-14T05:04:15.668Z,101480.44
2022-11-14T05:06:41.965Z,101492.34
2022-11-14T05:09:09.456Z,101471.75
2022-11-14T05:11:35.794Z,101470.69
2022-11-14T05:14:02.122Z,101484.03
2022-11-14T05:16:28.465Z,101477.38
2022-11-14T05:18:54.801Z,101472.66
2022-11-14T05:21:21.126Z,101457.25
2022-11-14T05:23:47.447Z,101467.06
2022-11-14T05:26:16.720Z,101470.09
2022-11-14T05:28:43.035Z,101446.94
2022-11-14T05:31:11.538Z,101440.53
2022-11-14T05:33:37.870Z,101462.97
2022-11-14T05:36:06.903Z,101443.31
2022-11-14T05:38:33.581Z,101448.47
2022-11-14T05:41:00.395Z,101459.38
2022-11-14T05:43:29.578Z,101452.81
2022-11-14T05:46:02.406Z,101459.59
2022-11-14T05:48:29.991Z,101468.97
2022-11-14T05:50:58.001Z,101461.47
2022-11-14T05:53:25.181Z,101453.88
2022-11-14T05:55:51.489Z,101449.06
2022-11-14T05:58:18.320Z,101447.91
2022-11-14T06:00:51.957Z,101463.00
2022-11-14T06:03:20.395Z,101456.56
2022-11-14T06:05:46.730Z,101443.13
2022-11-14T06:08:13.069Z,101449.66
2022-11-14T06:10:39.415Z,101447.19
2022-11-14T06:13:05.731Z,101430.72
2022-11-14T06:15:32.074Z,101439.03
2022-11-14T06:17:58.387Z,101434.00
2022-11-14T06:20:24.714Z,101439.25
2022-11-14T06:22:54.385Z,101442.19
2022-11-14T06:25:20.916Z,101444.88
2022-11-14T06:27:47.138Z,101446.50
2022-11-14T06:30:13.720Z,101431.19
2022-11-14T06:32:39.953Z,101452.28
2022-11-14T06:35:06.503Z,101453.44
2022-11-14T06:37:33.912Z,101452.88
2022-11-14T06:40:00.303Z,101457.34
2022-11-14T06:42:26.588Z,101450.19
2022-11-14T06:44:52.907Z,101464.22
2022-11-14T06:47:19.229Z,101446.91
2022-11-14T06:49:45.533Z,101444.25
2022-11-14T06:52:11.851Z,101449.25
2022-11-14T06:54:38.195Z,101440.81
2022-11-14T06:57:05.673Z,101444.34
2022-11-14T06:59:31.998Z,101443.53
2022-11-14T07:01:58.313Z,101452.88
2022-11-14T07:04:24.652Z,101447.84
2022-11-14T07:06:51.023Z,101445.41
2022-11-14T07:09:17.423Z,101457.81
2022-11-14T07:11:43.755Z,101450.56
2022-11-14T07:14:10.111Z,101453.38
2022-11-14T07:16:36.435Z,101457.81
2022-11-14T07:19:07.169Z,101462.97
2022-11-14T07:21:34.688Z,101460.94
2022-11-14T07:24:01.004Z,101446.81
2022-11-14T07:26:27.320Z,101439.78
2022-11-14T07:28:57.848Z,101456.16
2022-11-14T07:31:27.268Z,101450.03
2022-11-14T07:33:54.533Z,101456.47
2022-11-14T07:36:20.893Z,101449.44
2022-11-14T07:38:47.360Z,101452.03
2022-11-14T07:41:14.713Z,101461.47
2022-11-14T07:43:41.694Z,101450.34
2022-11-14T07:46:15.169Z,101440.31
2022-11-14T07:48:41.755Z,101453.59
2022-11-14T07:51:14.221Z,101433.38
2022-11-14T07:53:40.478Z,101447.34
2022-11-14T07:56:08.764Z,101433.41
2022-11-14T07:58:36.353Z,101428.13
2022-11-14T08:01:04.450Z,101442.22
2022-11-14T08:03:31.177Z,101447.44
2022-11-14T08:06:12.105Z,101445.06
2022-11-14T08:08:38.774Z,101431.78
2022-11-14T08:11:05.504Z,101429.41
2022-11-14T08:13:33.465Z,101434.59
2022-11-14T08:16:12.359Z,101426.38
2022-11-14T08:18:39.969Z,101423.69
2022-11-14T08:21:06.454Z,101413.94
2022-11-14T08:23:32.680Z,101423.09
2022-11-14T08:25:59.863Z,101394.94
2022-11-14T08:28:30.090Z,101418.66
2022-11-14T08:31:00.984Z,101399.06
2022-11-14T08:33:27.297Z,101403.19
2022-11-14T08:35:53.642Z,101404.97
2022-11-14T08:38:19.962Z,101396.44
2022-11-14T08:40:46.273Z,101413.88
2022-11-14T08:43:12.609Z,101418.22
2022-11-14T08:45:38.910Z,101406.09
2022-11-14T08:48:05.502Z,101400.25
2022-11-14T08:50:31.857Z,101403.94
2022-11-14T08:52:58.194Z,101407.91
2022-11-14T08:55:24.513Z,101403.66
2022-11-14T08:57:53.445Z,101401.25
2022-11-14T09:00:20.110Z,101400.13
2022-11-14T09:02:46.488Z,101401.63
2022-11-14T09:05:12.782Z,101410.88
2022-11-14T09:07:39.119Z,101412.53
2022-11-14T09:10:06.219Z,101397.81
2022-11-14T09:12:33.090Z,101391.22
2022-11-14T09:14:59.559Z,101379.50
2022-11-14T09:17:25.907Z,101383.94
2022-11-14T09:19:52.243Z,101383.50
2022-11-14T09:22:18.625Z,101381.41
2022-11-14T09:24:44.852Z,101374.03
2022-11-14T09:27:11.150Z,101369.56
2022-11-14T09:29:37.459Z,101374.84
2022-11-14T09:32:03.918Z,101384.78
2022-11-14T09:34:30.274Z,101380.59
2022-11-14T09:36:56.501Z,101383.59
2022-11-14T09:39:22.816Z,101378.66
2022-11-14T09:41:52.114Z,101382.72
2022-11-14T09:44:47.367Z,101372.56
2022-11-14T09:47:20.805Z,101372.31
2022-11-14T09:49:50.719Z,101366.81
2022-11-14T09:52:38.607Z,101372.97
2022-11-14T09:55:16.332Z,101360.00
2022-11-14T09:57:44.373Z,101370.22
2022-11-14T10:00:19.729Z,101364.53
2022-11-14T10:03:14.095Z,101347.91
2022-11-14T10:05:52.595Z,101360.72
2022-11-14T10:08:26.384Z,101340.50
2022-11-14T10:11:01.151Z,101343.34
2022-11-14T10:13:49.136Z,101357.81
2022-11-14T10:16:24.306Z,101345.44
2022-11-14T10:19:11.207Z,101342.38
2022-11-14T10:21:54.606Z,101340.66
2022-11-14T10:24:39.217Z,101338.56
2022-11-14T10:27:10.621Z,101327.34
2022-11-14T10:30:03.965Z,101319.75
2022-11-14T10:32:37.972Z,101332.81
2022-11-14T10:35:18.800Z,101327.53
2022-11-14T10:38:02.151Z,101328.16
2022-11-14T10:40:48.306Z,101320.16
2022-11-14T10:43:33.317Z,101324.63
2022-11-14T10:46:21.495Z,101316.34
2022-11-14T10:48:50.630Z,101288.97
2022-11-14T10:51:43.618Z,101296.91
2022-11-14T10:54:09.899Z,101294.75
2022-11-14T10:56:46.063Z,101296.25
2022-11-14T10:59:12.383Z,101282.56
2022-11-14T11:01:41.345Z,101275.50
2022-11-14T11:04:26.396Z,101291.84
2022-11-14T11:07:19.202Z,101290.22
2022-11-14T11:09:58.853Z,101284.19
2022-11-14T11:12:43.264Z,101288.84
2022-11-14T11:15:23.070Z,101274.06
2022-11-14T11:17:59.097Z,101278.19
2022-11-14T11:20:38.772Z,101266.63
2022-11-14T11:23:10.835Z,101265.19
2022-11-14T11:25:39.234Z,101266.44
2022-11-14T11:28:15.488Z,101248.78
2022-11-14T11:30:56.113Z,101251.81
2022-11-14T11:33:25.224Z,101251.13
2022-11-14T11:35:56.460Z,101243.34
2022-11-14T11:38:25.957Z,101238.72
2022-11-14T11:40:58.050Z,101237.97
2022-11-14T11:43:46.884Z,101235.56
2022-11-14T11:46:21.182Z,101241.25
2022-11-14T11:48:51.435Z,101230.34
2022-11-14T11:51:22.526Z,101233.41
2022-11-14T11:54:04.074Z,101244.59
2022-11-14T11:56:32.172Z,101251.81
2022-11-14T11:59:17.895Z,101240.38
2022-11-14T12:01:47.914Z,101229.16
2022-11-14T12:04:14.393Z,101227.28
2022-11-14T12:07:16.622Z,101243.03
2022-11-14T12:10:09.351Z,101244.47
2022-11-14T12:12:44.280Z,101231.50
2022-11-14T12:15:43.854Z,101225.97
2022-11-14T12:18:56.969Z,101216.03
2022-11-14T12:21:48.272Z,101214.81
2022-11-14T12:24:25.110Z,101219.44
2022-11-14T12:27:06.061Z,101208.28
2022-11-14T12:29:38.252Z,101213.56
2022-11-14T12:32:08.508Z,101201.88
2022-11-14T12:34:43.146Z,101204.13
2022-11-14T12:37:15.977Z,101194.03
2022-11-14T12:39:42.942Z,101188.19
2022-11-14T12:42:13.059Z,101191.81
2022-11-14T12:44:40.181Z,101203.41
2022-11-14T12:47:06.485Z,101202.16
2022-11-14T12:49:48.070Z,101204.66
2022-11-14T12:52:52.196Z,101207.69
2022-11-14T12:55:18.433Z,101189.22
2022-11-14T12:57:49.792Z,101181.44
2022-11-14T13:00:17.975Z,101169.84
2022-11-14T13:03:32.381Z,101171.84
2022-11-14T13:06:21.666Z,101173.84
2022-11-14T13:09:20.281Z,101156.91
2022-11-14T13:11:49.757Z,101145.59
2022-11-14T13:14:17.609Z,101128.56
2022-11-14T13:16:43.936Z,101126.22
2022-11-14T13:19:10.190Z,101134.97
2022-11-14T13:21:40.889Z,101135.75
2022-11-14T13:24:12.054Z,101122.47
2022-11-14T13:26:40.554Z,101124.47
2022-11-14T13:29:06.997Z,101131.47
2022-11-14T13:31:33.252Z,101155.84
2022-11-14T13:33:59.514Z,101142.00
2022-11-14T13:36:44.970Z,101143.97
2022-11-14T13:39:18.026Z,101142.72
2022-11-14T13:42:05.061Z,101146.31
2022-11-14T13:45:08.409Z,101142.72
2022-11-14T13:48:02.206Z,101141.09
2022-11-14T13:50:33.027Z,101137.00
2022-11-14T13:52:59.744Z,101127.88
2022-11-14T13:55:57.865Z,101135.31
2022-11-14T13:58:41.987Z,101136.31
2022-11-14T14:01:33.454Z,101132.81
2022-11-14T14:04:33.297Z,101150.00
2022-11-14T14:07:22.004Z,101145.88
2022-11-14T14:10:06.019Z,101156.31
2022-11-14T14:12:58.965Z,101146.81
2022-11-14T14:15:33.569Z,101141.88
2022-11-14T14:18:09.373Z,101140.06
2022-11-14T14:20:51.986Z,101137.38
2022-11-14T14:23:36.688Z,101138.09
2022-11-14T14:26:15.058Z,101149.34
2022-11-14T14:29:05.744Z,101145.34
2022-11-14T14:31:37.350Z,101130.88
2022-11-14T14:34:21.472Z,101133.03
2022-11-14T14:36:53.805Z,101117.47
2022-11-14T14:39:26.121Z,101124.88
2022-11-14T14:41:55.483Z,101119.47
2022-11-14T14:44:23.479Z,101116.31
2022-11-14T14:46:50.173Z,101118.00
2022-11-14T14:49:36.572Z,101123.84
2022-11-14T14:52:19.818Z,101119.00
2022-11-14T14:54:54.881Z,101116.22
2022-11-14T14:57:23.350Z,101115.84
2022-11-14T15:00:06.303Z,101113.41
2022-11-14T15:02:33.271Z,101108.81
2022-11-14T15:05:00.505Z,101111.81
2022-11-14T15:07:29.259Z,101103.19
2022-11-14T15:09:59.309Z,101106.84
2022-11-14T15:12:29.049Z,101084.09
2022-11-14T15:14:56.321Z,101103.38
2022-11-14T15:17:23.103Z,101096.72
2022-11-14T15:19:52.473Z,101093.72
2022-11-14T15:22:18.768Z,101089.69
2022-11-14T15:25:02.685Z,101088.06
2022-11-14T15:27:30.654Z,101076.75
2022-11-14T15:30:03.672Z,101081.06
2022-11-14T15:32:30.237Z,101076.00
2022-11-14T15:35:20.184Z,101077.63
2022-11-14T15:38:42.445Z,101078.16
2022-11-14T15:41:16.786Z,101077.19
2022-11-14T15:43:43.433Z,101078.00
2022-11-14T15:46:38.244Z,101081.31
2022-11-14T15:49:08.646Z,101096.59
2022-11-14T15:51:45.836Z,101093.19
2022-11-14T15:54:29.140Z,101094.81
2022-11-14T15:57:00.739Z,101094.38
2022-11-14T15:59:29.733Z,101096.44
2022-11-14T16:02:04.206Z,101094.38
2022-11-14T16:04:34.000Z,101098.75
2022-11-14T16:07:00.447Z,101095.63
2022-11-14T16:09:26.867Z,101091.84
2022-11-14T16:11:53.223Z,101077.38
2022-11-14T16:14:19.560Z,101072.16
2022-11-14T16:16:45.895Z,101074.38
2022-11-14T16:19:15.202Z,101082.50
2022-11-14T16:21:41.923Z,101069.72
2022-11-14T16:24:34.597Z,101075.00
2022-11-14T16:27:01.559Z,101067.91
2022-11-14T16:29:28.203Z,101072.78
2022-11-14T16:31:54.672Z,101060.25
2022-11-14T16:34:25.416Z,101062.34
2022-11-14T16:37:00.852Z,101064.94
2022-11-14T16:39:27.387Z,101061.53
2022-11-14T16:41:53.750Z,101061.44
2022-11-14T16:44:20.120Z,101072.16
2022-11-14T16:46:46.573Z,101070.25
2022-11-14T16:49:14.682Z,101068.63
2022-11-14T16:51:50.321Z,101066.81
2022-11-14T16:54:19.929Z,101057.56
2022-11-14T16:56:48.141Z,101054.78
2022-11-14T16:59:14.497Z,101056.16
2022-11-14T17:01:40.945Z,101054.63
2022-11-14T17:04:07.286Z,101058.03
2022-11-14T17:06:33.709Z,101051.72
2022-11-14T17:09:00.311Z,101056.16
2022-11-14T17:11:27.362Z,101055.41
2022-11-14T17:13:54.824Z,101032.50
2022-11-14T17:16:21.127Z,101031.38
2022-11-14T17:18:51.273Z,101045.59
2022-11-14T17:21:17.586Z,101037.34
2022-11-14T17:23:43.900Z,101025.31
2022-11-14T17:26:11.472Z,101030.59
2022-11-14T17:28:37.831Z,101018.09
2022-11-14T17:31:10.821Z,101011.06
2022-11-14T17:33:38.044Z,101026.44
2022-11-14T17:36:09.980Z,101019.44
2022-11-14T17:38:37.625Z,101014.28
2022-11-14T17:41:04.360Z,101017.16
2022-11-14T17:43:35.775Z,100999.00
2022-11-14T17:46:05.435Z,101007.69
2022-11-14T17:48:33.147Z,101001.69
2022-11-14T17:51:07.468Z,101009.59
2022-11-14T17:53:34.581Z,101009.69
2022-11-14T17:56:01.064Z,100999.44
2022-11-14T17:58:32.349Z,101001.50
2022-11-14T18:00:59.253Z,101002.94
2022-11-14T18:03:26.939Z,101008.97
2022-11-14T18:05:53.759Z,101012.22
2022-11-14T18:08:20.088Z,101001.38
2022-11-14T18:10:46.583Z,100999.16
2022-11-14T18:13:12.920Z,101006.16
2022-11-14T18:15:39.341Z,100999.53
2022-11-14T18:18:05.724Z,101001.84
2022-11-14T18:20:32.134Z,101019.03
2022-11-14T18:22:58.444Z,101016.41
2022-11-14T18:25:24.787Z,101015.06
2022-11-14T18:27:51.123Z,100989.88
2022-11-14T18:30:40.337Z,100997.19
2022-11-14T18:33:04.255Z,100977.56
2022-11-14T18:35:30.617Z,100999.16
2022-11-14T18:37:57.786Z,100996.78
2022-11-14T18:40:24.119Z,100987.44
2022-11-14T18:42:50.473Z,100991.13
2022-11-14T18:45:16.957Z,100993.56
2022-11-14T18:47:43.271Z,100986.28
2022-11-14T18:50:09.694Z,101002.00
2022-11-14T18:52:36.001Z,101001.22
2022-11-14T18:55:02.322Z,100987.28
2022-11-14T18:57:28.664Z,100980.19
2022-11-14T18:59:55.187Z,100977.56
2022-11-14T19:02:21.535Z,100988.47
2022-11-14T19:04:47.989Z,100983.25
2022-11-14T19:07:14.329Z,100999.41
2022-11-14T19:09:40.660Z,100988.09
2022-11-14T19:12:06.951Z,101002.00
2022-11-14T19:14:33.473Z,100991.06
2022-11-14T19:16:59.813Z,100980.19
2022-11-14T19:19:26.512Z,100987.44
2022-11-14T19:21:52.857Z,100976.94
2022-11-14T19:24:19.195Z,100977.97
2022-11-14T19:26:45.557Z,100983.41
2022-11-14T19:29:11.896Z,100980.56
2022-11-14T19:31:38.291Z,100979.09
2022-11-14T19:34:04.606Z,100980.56
2022-11-14T19:36:58.133Z,100988.47
2022-11-14T19:39:17.442Z,100993.69
2022-11-14T19:41:43.818Z,100963.56
2022-11-14T19:44:10.130Z,100985.50
2022-11-14T19:46:36.484Z,100979.22
2022-11-14T19:49:03.141Z,100986.69
2022-11-14T19:51:30.173Z,100991.63
2022-11-14T19:53:58.343Z,100983.75
2022-11-14T19:56:25.122Z,100959.31
2022-11-14T19:58:53.241Z,100978.19
2022-11-14T20:01:28.074Z,100972.06
2022-11-14T20:03:59.502Z,100969.22
2022-11-14T20:06:32.258Z,100982.25
2022-11-14T20:09:01.365Z,100975.03
2022-11-14T20:11:29.037Z,100979.44
2022-11-14T20:13:56.156Z,100975.59
2022-11-14T20:16:24.718Z,100981.19
2022-11-14T20:18:55.883Z,100973.63
2022-11-14T20:21:25.892Z,100982.25
2022-11-14T20:23:52.275Z,100978.63
2022-11-14T20:26:20.144Z,100986.63
2022-11-14T20:28:49.719Z,100985.34
2022-11-14T20:31:25.139Z,100981.84
2022-11-14T20:33:52.851Z,100967.03
2022-11-14T20:36:21.953Z,100975.00
2022-11-14T20:38:48.657Z,100972.63
2022-11-14T20:41:16.644Z,100971.91
2022-11-14T20:43:43.259Z,100973.25
2022-11-14T20:46:18.300Z,100970.34
2022-11-14T20:48:45.860Z,100963.94
2022-11-14T20:51:19.724Z,100950.19
2022-11-14T20:53:46.556Z,100953.28
2022-11-14T20:56:14.342Z,100954.78
2022-11-14T20:58:42.333Z,100953.34
2022-11-14T21:01:08.894Z,100949.97
2022-11-14T21:03:35.695Z,100950.81
2022-11-14T21:06:02.743Z,100935.44
2022-11-14T21:08:30.412Z,100949.22
2022-11-14T21:11:00.022Z,100956.22
2022-11-14T21:13:27.165Z,100950.09
2022-11-14T21:15:56.128Z,100938.06
2022-11-14T21:18:22.464Z,100947.19
2022-11-14T21:20:48.752Z,100942.31
2022-11-14T21:23:15.088Z,100931.53
2022-11-14T21:25:41.411Z,100939.78
2022-11-14T21:28:07.782Z,100934.63
2022-11-14T21:30:34.081Z,100935.41
2022-11-14T21:33:00.439Z,100916.19
2022-11-14T21:35:30.177Z,100918.94
2022-11-14T21:37:56.525Z,100920.09
2022-11-14T21:40:22.804Z,100945.41
2022-11-14T21:42:49.136Z,100924.81
2022-11-14T21:45:15.388Z,100936.47
2022-11-14T21:47:41.714Z,100928.38
2022-11-14T21:50:08.135Z,100940.72
2022-11-14T21:52:34.484Z,100927.59
2022-11-14T21:55:00.764Z,100933.94
2022-11-14T21:57:27.098Z,100905.91
2022-11-14T21:59:53.374Z,100932.66
2022-11-14T22:02:19.740Z,100931.59
2022-11-14T22:04:46.013Z,100933.69
2022-11-14T22:07:12.403Z,100922.19
2022-11-14T22:09:44.013Z,100930.78
2022-11-14T22:12:11.570Z,100933.38
2022-11-14T22:14:37.823Z,100945.56
2022-11-14T22:17:04.153Z,100933.88
2022-11-14T22:19:30.388Z,100940.66
2022-11-14T22:21:56.827Z,100931.91
2022-11-14T22:24:23.160Z,100932.69
2022-11-14T22:26:49.399Z,100938.34
2022-11-14T22:29:15.722Z,100926.16
2022-11-14T22:31:42.519Z,100923.97
2022-11-14T22:34:08.971Z,100917.13
2022-11-14T22:36:35.620Z,100920.66
2022-11-14T22:39:02.136Z,100923.50
2022-11-14T22:41:32.974Z,100923.81
2022-11-14T22:44:01.267Z,100923.53
2022-11-14T22:46:28.512Z,100917.53
2022-11-14T22:48:55.597Z,100917.75
2022-11-14T22:51:27.042Z,100911.09
2022-11-14T22:53:55.442Z,100905.34
2022-11-14T22:56:24.654Z,100923.16
2022-11-14T22:58:51.669Z,100923.16
2022-11-14T23:01:20.303Z,100909.22
2022-11-14T23:03:47.197Z,100924.91
2022-11-14T23:06:15.734Z,100906.91
2022-11-14T23:08:42.575Z,100917.88
2022-11-14T23:11:18.873Z,100910.63
2022-11-14T23:13:48.019Z,100922.38
2022-11-14T23:16:17.424Z,100921.69
2022-11-14T23:18:44.725Z,100915.06
2022-11-14T23:21:20.080Z,100932.66
2022-11-14T23:23:46.815Z,100914.97
2022-11-14T23:26:16.029Z,100921.09
2022-11-14T23:28:42.600Z,100911.84
2022-11-14T23:31:10.591Z,100914.72
2022-11-14T23:33:37.290Z,100911.75
2022-11-14T23:36:04.330Z,100904.66
2022-11-14T23:38:30.760Z,100911.50
2022-11-14T23:41:01.546Z,100909.53
2022-11-14T23:43:29.019Z,100891.84
2022-11-14T23:45:56.704Z,100903.94
2022-11-14T23:48:23.502Z,100899.09
2022-11-14T23:50:51.633Z,100905.91
2022-11-14T23:53:18.252Z,100902.63
2022-11-14T23:55:58.743Z,100889.31
2022-11-14T23:58:26.729Z,100882.84
